sensor_id;sensor_type;location;lat;lon;timestamp;P1;durP1;ratioP1;P2;durP2;ratioP2
84266;SDS011;74414;51.098;13.716;2024-03-08T00:01:39;27.30;;;13.50;;
84266;SDS011;74414;51.098;13.716;2024-03-08T00:04:04;24.77;;;13.25;;
84266;SDS011;74414;51.098;13.716;2024-03-08T00:06:31;25.05;;;12.82;;
84266;SDS011;74414;51.098;13.716;2024-03-08T00:08:56;22.52;;;11.35;;
84266;SDS011;74414;51.098;13.716;2024-03-08T00:11:22;28.37;;;13.97;;
84266;SDS011;74414;51.098;13.716;2024-03-08T00:13:51;26.38;;;12.50;;
84266;SDS011;74414;51.098;13.716;2024-03-08T00:16:19;29.48;;;14.07;;
84266;SDS011;74414;51.098;13.716;2024-03-08T00:18:45;26.57;;;13.50;;
84266;SDS011;74414;51.098;13.716;2024-03-08T00:21:10;26.17;;;13.27;;
84266;SDS011;74414;51.098;13.716;2024-03-08T00:23:37;27.15;;;13.55;;
84266;SDS011;74414;51.098;13.716;2024-03-08T00:26:02;27.67;;;12.95;;
84266;SDS011;74414;51.098;13.716;2024-03-08T00:28:29;30.20;;;13.93;;
84266;SDS011;74414;51.098;13.716;2024-03-08T00:30:55;28.38;;;14.43;;
84266;SDS011;74414;51.098;13.716;2024-03-08T00:33:21;28.27;;;14.55;;
84266;SDS011;74414;51.098;13.716;2024-03-08T00:35:46;27.35;;;13.02;;
84266;SDS011;74414;51.098;13.716;2024-03-08T00:38:12;28.70;;;13.88;;
84266;SDS011;74414;51.098;13.716;2024-03-08T00:40:38;29.42;;;14.05;;
84266;SDS011;74414;51.098;13.716;2024-03-08T00:43:03;32.67;;;14.33;;
84266;SDS011;74414;51.098;13.716;2024-03-08T00:45:29;27.73;;;13.32;;
84266;SDS011;74414;51.098;13.716;2024-03-08T00:47:54;23.88;;;13.15;;
84266;SDS011;74414;51.098;13.716;2024-03-08T00:50:20;27.60;;;13.93;;
84266;SDS011;74414;51.098;13.716;2024-03-08T00:52:45;28.25;;;14.52;;
84266;SDS011;74414;51.098;13.716;2024-03-08T00:55:11;29.90;;;13.73;;
84266;SDS011;74414;51.098;13.716;2024-03-08T00:57:37;33.05;;;13.65;;
84266;SDS011;74414;51.098;13.716;2024-03-08T01:00:04;28.10;;;12.80;;
84266;SDS011;74414;51.098;13.716;2024-03-08T01:02:32;27.52;;;12.48;;
84266;SDS011;74414;51.098;13.716;2024-03-08T01:05:00;30.45;;;13.93;;
84266;SDS011;74414;51.098;13.716;2024-03-08T01:07:26;27.63;;;13.95;;
84266;SDS011;74414;51.098;13.716;2024-03-08T01:09:51;30.35;;;14.55;;
84266;SDS011;74414;51.098;13.716;2024-03-08T01:12:16;32.27;;;13.60;;
84266;SDS011;74414;51.098;13.716;2024-03-08T01:14:42;34.80;;;14.35;;
84266;SDS011;74414;51.098;13.716;2024-03-08T01:17:07;29.42;;;14.63;;
84266;SDS011;74414;51.098;13.716;2024-03-08T01:19:34;32.97;;;14.40;;
84266;SDS011;74414;51.098;13.716;2024-03-08T01:22:00;29.55;;;13.27;;
84266;SDS011;74414;51.098;13.716;2024-03-08T01:24:25;32.15;;;14.98;;
84266;SDS011;74414;51.098;13.716;2024-03-08T01:26:51;36.20;;;15.93;;
84266;SDS011;74414;51.098;13.716;2024-03-08T01:29:16;25.87;;;13.57;;
84266;SDS011;74414;51.098;13.716;2024-03-08T01:31:41;33.70;;;15.13;;
84266;SDS011;74414;51.098;13.716;2024-03-08T01:34:07;28.37;;;14.10;;
84266;SDS011;74414;51.098;13.716;2024-03-08T01:36:32;28.77;;;14.27;;
84266;SDS011;74414;51.098;13.716;2024-03-08T01:38:57;31.07;;;16.00;;
84266;SDS011;74414;51.098;13.716;2024-03-08T01:41:22;30.00;;;15.03;;
84266;SDS011;74414;51.098;13.716;2024-03-08T01:43:48;33.72;;;15.82;;
84266;SDS011;74414;51.098;13.716;2024-03-08T01:46:15;30.92;;;15.20;;
84266;SDS011;74414;51.098;13.716;2024-03-08T01:48:44;34.75;;;15.90;;
84266;SDS011;74414;51.098;13.716;2024-03-08T01:51:10;35.67;;;16.08;;
84266;SDS011;74414;51.098;13.716;2024-03-08T01:53:37;34.80;;;15.65;;
84266;SDS011;74414;51.098;13.716;2024-03-08T01:56:03;32.40;;;14.27;;
84266;SDS011;74414;51.098;13.716;2024-03-08T01:58:30;32.35;;;15.65;;
84266;SDS011;74414;51.098;13.716;2024-03-08T02:00:58;32.25;;;15.25;;
84266;SDS011;74414;51.098;13.716;2024-03-08T02:03:24;29.02;;;14.75;;
84266;SDS011;74414;51.098;13.716;2024-03-08T02:05:50;34.08;;;15.68;;
84266;SDS011;74414;51.098;13.716;2024-03-08T02:08:16;30.42;;;14.10;;
84266;SDS011;74414;51.098;13.716;2024-03-08T02:13:15;34.20;;;15.20;;
84266;SDS011;74414;51.098;13.716;2024-03-08T02:15:54;31.80;;;14.95;;
84266;SDS011;74414;51.098;13.716;2024-03-08T02:18:27;33.33;;;14.88;;
84266;SDS011;74414;51.098;13.716;2024-03-08T02:20:54;30.08;;;14.88;;
84266;SDS011;74414;51.098;13.716;2024-03-08T02:23:20;29.02;;;13.88;;
84266;SDS011;74414;51.098;13.716;2024-03-08T02:25:47;33.47;;;15.85;;
84266;SDS011;74414;51.098;13.716;2024-03-08T02:28:13;33.53;;;15.32;;
84266;SDS011;74414;51.098;13.716;2024-03-08T02:30:40;32.40;;;15.77;;
84266;SDS011;74414;51.098;13.716;2024-03-08T02:33:06;36.67;;;16.80;;
84266;SDS011;74414;51.098;13.716;2024-03-08T02:35:35;35.03;;;15.75;;
84266;SDS011;74414;51.098;13.716;2024-03-08T02:38:01;37.30;;;14.98;;
84266;SDS011;74414;51.098;13.716;2024-03-08T02:40:28;31.40;;;14.70;;
84266;SDS011;74414;51.098;13.716;2024-03-08T02:42:54;35.83;;;15.38;;
84266;SDS011;74414;51.098;13.716;2024-03-08T02:45:20;38.13;;;15.13;;
84266;SDS011;74414;51.098;13.716;2024-03-08T02:47:45;37.92;;;15.75;;
84266;SDS011;74414;51.098;13.716;2024-03-08T02:50:11;32.88;;;16.17;;
84266;SDS011;74414;51.098;13.716;2024-03-08T02:52:37;35.63;;;15.30;;
84266;SDS011;74414;51.098;13.716;2024-03-08T02:55:02;34.58;;;16.15;;
84266;SDS011;74414;51.098;13.716;2024-03-08T02:57:30;32.80;;;16.02;;
84266;SDS011;74414;51.098;13.716;2024-03-08T02:59:55;35.90;;;16.15;;
84266;SDS011;74414;51.098;13.716;2024-03-08T03:02:21;38.03;;;16.10;;
84266;SDS011;74414;51.098;13.716;2024-03-08T03:04:48;38.25;;;16.85;;
84266;SDS011;74414;51.098;13.716;2024-03-08T03:07:13;34.13;;;16.02;;
84266;SDS011;74414;51.098;13.716;2024-03-08T03:09:39;35.25;;;16.27;;
84266;SDS011;74414;51.098;13.716;2024-03-08T03:12:04;36.92;;;16.58;;
84266;SDS011;74414;51.098;13.716;2024-03-08T03:14:29;35.30;;;15.30;;
84266;SDS011;74414;51.098;13.716;2024-03-08T03:16:55;32.93;;;15.80;;
84266;SDS011;74414;51.098;13.716;2024-03-08T03:19:20;39.20;;;17.07;;
84266;SDS011;74414;51.098;13.716;2024-03-08T03:21:46;42.47;;;17.03;;
84266;SDS011;74414;51.098;13.716;2024-03-08T03:24:12;38.47;;;16.73;;
84266;SDS011;74414;51.098;13.716;2024-03-08T03:26:37;32.20;;;15.68;;
84266;SDS011;74414;51.098;13.716;2024-03-08T03:29:06;38.80;;;17.67;;
84266;SDS011;74414;51.098;13.716;2024-03-08T03:31:33;38.10;;;17.25;;
84266;SDS011;74414;51.098;13.716;2024-03-08T03:34:00;40.47;;;17.60;;
84266;SDS011;74414;51.098;13.716;2024-03-08T03:36:31;36.97;;;17.13;;
84266;SDS011;74414;51.098;13.716;2024-03-08T03:38:56;34.78;;;15.52;;
84266;SDS011;74414;51.098;13.716;2024-03-08T03:41:31;34.28;;;16.33;;
84266;SDS011;74414;51.098;13.716;2024-03-08T03:43:56;33.77;;;16.43;;
84266;SDS011;74414;51.098;13.716;2024-03-08T03:46:22;40.83;;;16.92;;
84266;SDS011;74414;51.098;13.716;2024-03-08T03:48:48;39.53;;;16.75;;
84266;SDS011;74414;51.098;13.716;2024-03-08T03:51:13;44.20;;;18.57;;
84266;SDS011;74414;51.098;13.716;2024-03-08T03:53:40;40.80;;;18.25;;
84266;SDS011;74414;51.098;13.716;2024-03-08T03:56:06;44.38;;;18.63;;
84266;SDS011;74414;51.098;13.716;2024-03-08T03:58:32;37.95;;;16.85;;
84266;SDS011;74414;51.098;13.716;2024-03-08T04:00:57;42.42;;;17.48;;
84266;SDS011;74414;51.098;13.716;2024-03-08T04:03:23;40.13;;;16.70;;
84266;SDS011;74414;51.098;13.716;2024-03-08T04:05:48;40.28;;;18.98;;
84266;SDS011;74414;51.098;13.716;2024-03-08T04:08:14;42.90;;;19.27;;
84266;SDS011;74414;51.098;13.716;2024-03-08T04:10:39;37.90;;;16.50;;
84266;SDS011;74414;51.098;13.716;2024-03-08T04:13:07;43.70;;;18.27;;
84266;SDS011;74414;51.098;13.716;2024-03-08T04:15:32;41.72;;;17.77;;
84266;SDS011;74414;51.098;13.716;2024-03-08T04:17:58;44.03;;;17.93;;
84266;SDS011;74414;51.098;13.716;2024-03-08T04:20:25;44.55;;;17.90;;
84266;SDS011;74414;51.098;13.716;2024-03-08T04:22:50;41.30;;;17.70;;
84266;SDS011;74414;51.098;13.716;2024-03-08T04:25:15;37.20;;;16.07;;
84266;SDS011;74414;51.098;13.716;2024-03-08T04:27:41;34.90;;;16.87;;
84266;SDS011;74414;51.098;13.716;2024-03-08T04:30:06;36.88;;;17.50;;
84266;SDS011;74414;51.098;13.716;2024-03-08T04:32:33;42.70;;;17.88;;
84266;SDS011;74414;51.098;13.716;2024-03-08T04:34:58;41.90;;;17.98;;
84266;SDS011;74414;51.098;13.716;2024-03-08T04:37:26;33.95;;;15.98;;
84266;SDS011;74414;51.098;13.716;2024-03-08T04:39:51;38.97;;;16.77;;
84266;SDS011;74414;51.098;13.716;2024-03-08T04:42:16;41.20;;;17.00;;
84266;SDS011;74414;51.098;13.716;2024-03-08T04:44:43;34.72;;;15.95;;
84266;SDS011;74414;51.098;13.716;2024-03-08T04:47:08;42.72;;;17.92;;
84266;SDS011;74414;51.098;13.716;2024-03-08T04:49:35;38.85;;;18.83;;
84266;SDS011;74414;51.098;13.716;2024-03-08T04:52:04;43.40;;;17.35;;
84266;SDS011;74414;51.098;13.716;2024-03-08T04:54:30;35.28;;;16.23;;
84266;SDS011;74414;51.098;13.716;2024-03-08T04:56:56;43.30;;;16.83;;
84266;SDS011;74414;51.098;13.716;2024-03-08T04:59:22;40.03;;;17.38;;
84266;SDS011;74414;51.098;13.716;2024-03-08T05:01:47;41.70;;;16.57;;
84266;SDS011;74414;51.098;13.716;2024-03-08T05:04:13;36.57;;;17.10;;
84266;SDS011;74414;51.098;13.716;2024-03-08T05:06:38;42.65;;;17.67;;
84266;SDS011;74414;51.098;13.716;2024-03-08T05:09:04;40.20;;;16.33;;
84266;SDS011;74414;51.098;13.716;2024-03-08T05:11:47;39.78;;;16.77;;
84266;SDS011;74414;51.098;13.716;2024-03-08T05:14:13;40.95;;;17.33;;
84266;SDS011;74414;51.098;13.716;2024-03-08T05:16:46;41.90;;;16.98;;
84266;SDS011;74414;51.098;13.716;2024-03-08T05:19:17;40.38;;;16.13;;
84266;SDS011;74414;51.098;13.716;2024-03-08T05:21:44;40.05;;;17.80;;
84266;SDS011;74414;51.098;13.716;2024-03-08T05:24:10;42.33;;;17.38;;
84266;SDS011;74414;51.098;13.716;2024-03-08T05:26:36;42.85;;;18.27;;
84266;SDS011;74414;51.098;13.716;2024-03-08T05:29:02;41.40;;;17.67;;
84266;SDS011;74414;51.098;13.716;2024-03-08T05:31:28;38.80;;;18.02;;
84266;SDS011;74414;51.098;13.716;2024-03-08T05:33:54;39.55;;;17.77;;
84266;SDS011;74414;51.098;13.716;2024-03-08T05:36:20;42.83;;;17.63;;
84266;SDS011;74414;51.098;13.716;2024-03-08T05:38:46;38.70;;;18.15;;
84266;SDS011;74414;51.098;13.716;2024-03-08T05:41:12;38.80;;;16.13;;
84266;SDS011;74414;51.098;13.716;2024-03-08T05:43:37;47.00;;;18.60;;
84266;SDS011;74414;51.098;13.716;2024-03-08T05:46:03;37.95;;;17.17;;
84266;SDS011;74414;51.098;13.716;2024-03-08T05:48:29;45.45;;;19.05;;
84266;SDS011;74414;51.098;13.716;2024-03-08T05:50:57;35.65;;;16.80;;
84266;SDS011;74414;51.098;13.716;2024-03-08T05:53:22;42.20;;;18.33;;
84266;SDS011;74414;51.098;13.716;2024-03-08T05:55:48;45.07;;;18.50;;
84266;SDS011;74414;51.098;13.716;2024-03-08T05:58:14;41.95;;;18.02;;
84266;SDS011;74414;51.098;13.716;2024-03-08T06:00:40;45.75;;;18.58;;
84266;SDS011;74414;51.098;13.716;2024-03-08T06:03:05;44.20;;;20.30;;
84266;SDS011;74414;51.098;13.716;2024-03-08T06:05:30;48.60;;;20.90;;
84266;SDS011;74414;51.098;13.716;2024-03-08T06:07:56;49.95;;;20.55;;
84266;SDS011;74414;51.098;13.716;2024-03-08T06:10:21;40.47;;;18.95;;
84266;SDS011;74414;51.098;13.716;2024-03-08T06:12:46;47.00;;;20.48;;
84266;SDS011;74414;51.098;13.716;2024-03-08T06:15:12;37.67;;;17.27;;
84266;SDS011;74414;51.098;13.716;2024-03-08T06:17:41;37.15;;;17.27;;
84266;SDS011;74414;51.098;13.716;2024-03-08T06:20:06;37.72;;;18.33;;
84266;SDS011;74414;51.098;13.716;2024-03-08T06:22:38;37.50;;;17.30;;
84266;SDS011;74414;51.098;13.716;2024-03-08T06:25:06;32.75;;;16.60;;
84266;SDS011;74414;51.098;13.716;2024-03-08T06:27:32;36.47;;;17.25;;
84266;SDS011;74414;51.098;13.716;2024-03-08T06:29:59;32.13;;;16.50;;
84266;SDS011;74414;51.098;13.716;2024-03-08T06:32:24;37.03;;;17.45;;
84266;SDS011;74414;51.098;13.716;2024-03-08T06:34:50;34.20;;;17.40;;
84266;SDS011;74414;51.098;13.716;2024-03-08T06:37:16;34.45;;;17.92;;
84266;SDS011;74414;51.098;13.716;2024-03-08T06:39:47;37.92;;;18.00;;
84266;SDS011;74414;51.098;13.716;2024-03-08T06:42:20;37.65;;;17.40;;
84266;SDS011;74414;51.098;13.716;2024-03-08T06:44:45;33.00;;;17.63;;
84266;SDS011;74414;51.098;13.716;2024-03-08T06:47:14;37.42;;;16.35;;
84266;SDS011;74414;51.098;13.716;2024-03-08T06:49:41;37.53;;;17.30;;
84266;SDS011;74414;51.098;13.716;2024-03-08T06:52:10;30.38;;;15.98;;
84266;SDS011;74414;51.098;13.716;2024-03-08T06:54:35;31.30;;;16.75;;
84266;SDS011;74414;51.098;13.716;2024-03-08T06:57:02;31.25;;;16.45;;
84266;SDS011;74414;51.098;13.716;2024-03-08T06:59:28;29.50;;;15.15;;
84266;SDS011;74414;51.098;13.716;2024-03-08T07:01:54;31.20;;;16.63;;
84266;SDS011;74414;51.098;13.716;2024-03-08T07:04:19;29.75;;;15.85;;
84266;SDS011;74414;51.098;13.716;2024-03-08T07:06:46;32.45;;;17.50;;
84266;SDS011;74414;51.098;13.716;2024-03-08T07:09:15;31.27;;;18.17;;
84266;SDS011;74414;51.098;13.716;2024-03-08T07:11:44;32.05;;;16.17;;
84266;SDS011;74414;51.098;13.716;2024-03-08T07:14:09;27.83;;;15.23;;
84266;SDS011;74414;51.098;13.716;2024-03-08T07:16:34;27.87;;;15.70;;
84266;SDS011;74414;51.098;13.716;2024-03-08T07:19:04;33.28;;;16.30;;
84266;SDS011;74414;51.098;13.716;2024-03-08T07:21:30;28.38;;;16.85;;
84266;SDS011;74414;51.098;13.716;2024-03-08T07:23:56;28.02;;;15.07;;
84266;SDS011;74414;51.098;13.716;2024-03-08T07:26:42;30.52;;;15.88;;
84266;SDS011;74414;51.098;13.716;2024-03-08T07:29:08;30.23;;;16.55;;
84266;SDS011;74414;51.098;13.716;2024-03-08T07:31:33;32.73;;;17.40;;
84266;SDS011;74414;51.098;13.716;2024-03-08T07:34:27;31.80;;;17.48;;
84266;SDS011;74414;51.098;13.716;2024-03-08T07:36:52;30.75;;;16.55;;
84266;SDS011;74414;51.098;13.716;2024-03-08T07:39:18;30.23;;;16.48;;
84266;SDS011;74414;51.098;13.716;2024-03-08T07:41:44;28.17;;;15.82;;
84266;SDS011;74414;51.098;13.716;2024-03-08T07:44:09;30.50;;;16.85;;
84266;SDS011;74414;51.098;13.716;2024-03-08T07:46:35;31.95;;;17.85;;
84266;SDS011;74414;51.098;13.716;2024-03-08T07:49:01;35.72;;;17.38;;
84266;SDS011;74414;51.098;13.716;2024-03-08T07:51:28;28.48;;;16.50;;
84266;SDS011;74414;51.098;13.716;2024-03-08T07:53:53;30.85;;;17.13;;
84266;SDS011;74414;51.098;13.716;2024-03-08T07:56:18;33.35;;;17.33;;
84266;SDS011;74414;51.098;13.716;2024-03-08T07:58:46;32.75;;;18.00;;
84266;SDS011;74414;51.098;13.716;2024-03-08T08:01:17;32.58;;;17.27;;
84266;SDS011;74414;51.098;13.716;2024-03-08T08:03:43;27.67;;;16.40;;
84266;SDS011;74414;51.098;13.716;2024-03-08T08:06:09;36.00;;;17.65;;
84266;SDS011;74414;51.098;13.716;2024-03-08T08:08:35;32.70;;;18.90;;
84266;SDS011;74414;51.098;13.716;2024-03-08T08:11:02;31.45;;;17.77;;
84266;SDS011;74414;51.098;13.716;2024-03-08T08:13:27;30.75;;;17.20;;
84266;SDS011;74414;51.098;13.716;2024-03-08T08:15:57;33.75;;;17.73;;
84266;SDS011;74414;51.098;13.716;2024-03-08T08:18:22;30.05;;;16.30;;
84266;SDS011;74414;51.098;13.716;2024-03-08T08:20:50;31.35;;;16.42;;
84266;SDS011;74414;51.098;13.716;2024-03-08T08:23:15;31.05;;;16.17;;
84266;SDS011;74414;51.098;13.716;2024-03-08T08:25:41;29.85;;;16.13;;
84266;SDS011;74414;51.098;13.716;2024-03-08T08:28:06;30.33;;;15.90;;
84266;SDS011;74414;51.098;13.716;2024-03-08T08:30:31;30.75;;;14.65;;
84266;SDS011;74414;51.098;13.716;2024-03-08T08:32:58;32.17;;;16.50;;
84266;SDS011;74414;51.098;13.716;2024-03-08T08:35:25;27.40;;;15.13;;
84266;SDS011;74414;51.098;13.716;2024-03-08T08:37:51;28.77;;;15.15;;
84266;SDS011;74414;51.098;13.716;2024-03-08T08:40:16;30.25;;;15.75;;
84266;SDS011;74414;51.098;13.716;2024-03-08T08:42:42;29.52;;;15.40;;
84266;SDS011;74414;51.098;13.716;2024-03-08T08:45:08;24.77;;;14.20;;
84266;SDS011;74414;51.098;13.716;2024-03-08T08:47:37;25.85;;;14.70;;
84266;SDS011;74414;51.098;13.716;2024-03-08T08:50:03;27.38;;;15.63;;
84266;SDS011;74414;51.098;13.716;2024-03-08T08:52:32;23.17;;;12.93;;
84266;SDS011;74414;51.098;13.716;2024-03-08T08:54:57;26.27;;;13.77;;
84266;SDS011;74414;51.098;13.716;2024-03-08T08:57:23;24.60;;;13.57;;
84266;SDS011;74414;51.098;13.716;2024-03-08T08:59:49;24.75;;;13.10;;
84266;SDS011;74414;51.098;13.716;2024-03-08T09:02:15;25.35;;;14.05;;
84266;SDS011;74414;51.098;13.716;2024-03-08T09:04:41;26.85;;;14.18;;
84266;SDS011;74414;51.098;13.716;2024-03-08T09:07:07;26.67;;;13.85;;
84266;SDS011;74414;51.098;13.716;2024-03-08T09:09:33;24.90;;;14.27;;
84266;SDS011;74414;51.098;13.716;2024-03-08T09:11:58;27.00;;;14.10;;
84266;SDS011;74414;51.098;13.716;2024-03-08T09:14:23;22.83;;;12.50;;
84266;SDS011;74414;51.098;13.716;2024-03-08T09:16:51;26.33;;;13.52;;
84266;SDS011;74414;51.098;13.716;2024-03-08T09:19:16;25.20;;;14.73;;
84266;SDS011;74414;51.098;13.716;2024-03-08T09:21:42;21.00;;;12.65;;
84266;SDS011;74414;51.098;13.716;2024-03-08T09:24:08;25.23;;;13.73;;
84266;SDS011;74414;51.098;13.716;2024-03-08T09:26:33;20.57;;;12.97;;
84266;SDS011;74414;51.098;13.716;2024-03-08T09:28:59;26.35;;;13.82;;
84266;SDS011;74414;51.098;13.716;2024-03-08T09:31:24;19.17;;;12.05;;
84266;SDS011;74414;51.098;13.716;2024-03-08T09:33:51;21.88;;;12.52;;
84266;SDS011;74414;51.098;13.716;2024-03-08T09:36:17;19.17;;;11.80;;
84266;SDS011;74414;51.098;13.716;2024-03-08T09:38:42;20.17;;;11.65;;
84266;SDS011;74414;51.098;13.716;2024-03-08T09:41:08;22.50;;;12.30;;
84266;SDS011;74414;51.098;13.716;2024-03-08T09:43:35;20.15;;;11.85;;
84266;SDS011;74414;51.098;13.716;2024-03-08T09:46:01;21.33;;;12.93;;
84266;SDS011;74414;51.098;13.716;2024-03-08T09:48:28;21.05;;;12.68;;
84266;SDS011;74414;51.098;13.716;2024-03-08T09:50:54;20.30;;;12.15;;
84266;SDS011;74414;51.098;13.716;2024-03-08T09:53:22;20.25;;;12.02;;
84266;SDS011;74414;51.098;13.716;2024-03-08T09:55:47;20.35;;;10.88;;
84266;SDS011;74414;51.098;13.716;2024-03-08T09:58:14;20.15;;;11.10;;
84266;SDS011;74414;51.098;13.716;2024-03-08T10:00:42;22.90;;;11.50;;
84266;SDS011;74414;51.098;13.716;2024-03-08T10:03:08;20.27;;;11.23;;
84266;SDS011;74414;51.098;13.716;2024-03-08T10:05:34;19.90;;;11.45;;
84266;SDS011;74414;51.098;13.716;2024-03-08T10:07:59;19.58;;;11.55;;
84266;SDS011;74414;51.098;13.716;2024-03-08T10:10:25;20.75;;;10.35;;
84266;SDS011;74414;51.098;13.716;2024-03-08T10:12:51;16.67;;;10.07;;
84266;SDS011;74414;51.098;13.716;2024-03-08T10:15:17;18.02;;;11.00;;
84266;SDS011;74414;51.098;13.716;2024-03-08T10:17:42;16.70;;;9.75;;
84266;SDS011;74414;51.098;13.716;2024-03-08T10:20:15;15.85;;;10.77;;
84266;SDS011;74414;51.098;13.716;2024-03-08T10:22:42;18.00;;;10.63;;
84266;SDS011;74414;51.098;13.716;2024-03-08T10:25:10;20.08;;;11.90;;
84266;SDS011;74414;51.098;13.716;2024-03-08T10:27:38;17.23;;;10.52;;
84266;SDS011;74414;51.098;13.716;2024-03-08T10:30:14;19.55;;;10.48;;
84266;SDS011;74414;51.098;13.716;2024-03-08T10:32:41;16.30;;;9.80;;
84266;SDS011;74414;51.098;13.716;2024-03-08T10:35:09;18.20;;;9.65;;
84266;SDS011;74414;51.098;13.716;2024-03-08T10:37:45;19.27;;;10.45;;
84266;SDS011;74414;51.098;13.716;2024-03-08T10:40:16;16.48;;;9.90;;
84266;SDS011;74414;51.098;13.716;2024-03-08T10:42:51;22.60;;;10.75;;
84266;SDS011;74414;51.098;13.716;2024-03-08T10:45:31;19.60;;;10.20;;
84266;SDS011;74414;51.098;13.716;2024-03-08T10:50:50;22.80;;;11.93;;
84266;SDS011;74414;51.098;13.716;2024-03-08T10:53:18;21.33;;;11.60;;
84266;SDS011;74414;51.098;13.716;2024-03-08T10:55:46;20.60;;;11.27;;
84266;SDS011;74414;51.098;13.716;2024-03-08T10:58:12;17.52;;;9.98;;
84266;SDS011;74414;51.098;13.716;2024-03-08T11:00:38;20.33;;;11.68;;
84266;SDS011;74414;51.098;13.716;2024-03-08T11:03:04;19.75;;;11.10;;
84266;SDS011;74414;51.098;13.716;2024-03-08T11:05:39;22.63;;;11.40;;
84266;SDS011;74414;51.098;13.716;2024-03-08T11:10:59;18.08;;;10.35;;
84266;SDS011;74414;51.098;13.716;2024-03-08T11:13:40;20.23;;;10.93;;
84266;SDS011;74414;51.098;13.716;2024-03-08T11:16:12;19.40;;;9.80;;
84266;SDS011;74414;51.098;13.716;2024-03-08T11:21:32;18.23;;;10.05;;
84266;SDS011;74414;51.098;13.716;2024-03-08T11:24:13;18.48;;;10.02;;
84266;SDS011;74414;51.098;13.716;2024-03-08T11:26:40;16.63;;;10.40;;
84266;SDS011;74414;51.098;13.716;2024-03-08T11:32:03;18.75;;;8.27;;
84266;SDS011;74414;51.098;13.716;2024-03-08T11:34:35;19.83;;;9.95;;
84266;SDS011;74414;51.098;13.716;2024-03-08T11:37:04;18.40;;;10.25;;
84266;SDS011;74414;51.098;13.716;2024-03-08T11:39:31;18.40;;;9.32;;
84266;SDS011;74414;51.098;13.716;2024-03-08T11:41:57;19.77;;;10.88;;
84266;SDS011;74414;51.098;13.716;2024-03-08T11:44:26;17.23;;;9.38;;
84266;SDS011;74414;51.098;13.716;2024-03-08T11:46:52;19.75;;;9.23;;
84266;SDS011;74414;51.098;13.716;2024-03-08T11:49:19;16.73;;;8.95;;
84266;SDS011;74414;51.098;13.716;2024-03-08T11:51:44;15.63;;;8.80;;
84266;SDS011;74414;51.098;13.716;2024-03-08T11:54:11;15.93;;;8.63;;
84266;SDS011;74414;51.098;13.716;2024-03-08T11:56:40;17.73;;;9.05;;
84266;SDS011;74414;51.098;13.716;2024-03-08T11:59:10;14.63;;;8.85;;
84266;SDS011;74414;51.098;13.716;2024-03-08T12:01:38;14.10;;;7.35;;
84266;SDS011;74414;51.098;13.716;2024-03-08T12:04:04;17.65;;;8.65;;
84266;SDS011;74414;51.098;13.716;2024-03-08T12:06:40;15.40;;;8.35;;
84266;SDS011;74414;51.098;13.716;2024-03-08T12:09:09;14.15;;;8.15;;
84266;SDS011;74414;51.098;13.716;2024-03-08T12:11:35;15.50;;;8.00;;
84266;SDS011;74414;51.098;13.716;2024-03-08T12:14:01;13.07;;;7.72;;
84266;SDS011;74414;51.098;13.716;2024-03-08T12:16:27;15.30;;;8.20;;
84266;SDS011;74414;51.098;13.716;2024-03-08T12:18:53;13.35;;;7.80;;
84266;SDS011;74414;51.098;13.716;2024-03-08T12:21:18;14.88;;;8.48;;
84266;SDS011;74414;51.098;13.716;2024-03-08T12:24:01;11.85;;;7.10;;
84266;SDS011;74414;51.098;13.716;2024-03-08T12:26:34;12.45;;;8.20;;
84266;SDS011;74414;51.098;13.716;2024-03-08T12:29:14;12.55;;;7.55;;
84266;SDS011;74414;51.098;13.716;2024-03-08T12:31:42;13.52;;;8.05;;
84266;SDS011;74414;51.098;13.716;2024-03-08T12:34:07;14.40;;;7.63;;
84266;SDS011;74414;51.098;13.716;2024-03-08T12:36:35;13.20;;;7.65;;
84266;SDS011;74414;51.098;13.716;2024-03-08T12:39:01;13.55;;;7.60;;
84266;SDS011;74414;51.098;13.716;2024-03-08T12:41:29;11.50;;;7.55;;
84266;SDS011;74414;51.098;13.716;2024-03-08T12:43:54;14.20;;;7.93;;
84266;SDS011;74414;51.098;13.716;2024-03-08T12:46:21;11.52;;;7.45;;
84266;SDS011;74414;51.098;13.716;2024-03-08T12:48:47;13.10;;;7.90;;
84266;SDS011;74414;51.098;13.716;2024-03-08T12:51:13;11.75;;;7.88;;
84266;SDS011;74414;51.098;13.716;2024-03-08T12:53:39;11.77;;;7.25;;
84266;SDS011;74414;51.098;13.716;2024-03-08T12:56:09;14.23;;;7.63;;
84266;SDS011;74414;51.098;13.716;2024-03-08T12:58:35;12.85;;;6.88;;
84266;SDS011;74414;51.098;13.716;2024-03-08T13:01:02;12.57;;;7.63;;
84266;SDS011;74414;51.098;13.716;2024-03-08T13:03:30;12.50;;;7.05;;
84266;SDS011;74414;51.098;13.716;2024-03-08T13:05:55;9.68;;;6.20;;
84266;SDS011;74414;51.098;13.716;2024-03-08T13:08:23;12.27;;;6.90;;
84266;SDS011;74414;51.098;13.716;2024-03-08T13:10:51;10.95;;;6.18;;
84266;SDS011;74414;51.098;13.716;2024-03-08T13:13:16;10.87;;;7.27;;
84266;SDS011;74414;51.098;13.716;2024-03-08T13:15:42;11.40;;;7.18;;
84266;SDS011;74414;51.098;13.716;2024-03-08T13:18:08;14.25;;;8.02;;
84266;SDS011;74414;51.098;13.716;2024-03-08T13:20:34;12.10;;;7.53;;
84266;SDS011;74414;51.098;13.716;2024-03-08T13:23:02;14.05;;;7.63;;
84266;SDS011;74414;51.098;13.716;2024-03-08T13:25:29;13.40;;;7.97;;
84266;SDS011;74414;51.098;13.716;2024-03-08T13:27:55;11.70;;;7.13;;
84266;SDS011;74414;51.098;13.716;2024-03-08T13:30:22;12.80;;;7.25;;
84266;SDS011;74414;51.098;13.716;2024-03-08T13:32:51;11.48;;;6.75;;
84266;SDS011;74414;51.098;13.716;2024-03-08T13:35:18;13.65;;;7.45;;
84266;SDS011;74414;51.098;13.716;2024-03-08T13:37:49;12.35;;;6.80;;
84266;SDS011;74414;51.098;13.716;2024-03-08T13:40:16;10.75;;;7.13;;
84266;SDS011;74414;51.098;13.716;2024-03-08T13:42:43;12.90;;;6.70;;
84266;SDS011;74414;51.098;13.716;2024-03-08T13:45:09;10.80;;;6.25;;
84266;SDS011;74414;51.098;13.716;2024-03-08T13:47:39;8.38;;;6.00;;
84266;SDS011;74414;51.098;13.716;2024-03-08T13:50:06;8.85;;;5.43;;
84266;SDS011;74414;51.098;13.716;2024-03-08T13:52:33;9.63;;;6.72;;
84266;SDS011;74414;51.098;13.716;2024-03-08T13:55:00;11.20;;;6.20;;
84266;SDS011;74414;51.098;13.716;2024-03-08T13:57:25;9.88;;;6.30;;
84266;SDS011;74414;51.098;13.716;2024-03-08T13:59:52;11.02;;;6.22;;
84266;SDS011;74414;51.098;13.716;2024-03-08T14:02:18;10.57;;;6.25;;
84266;SDS011;74414;51.098;13.716;2024-03-08T14:04:43;10.15;;;6.00;;
84266;SDS011;74414;51.098;13.716;2024-03-08T14:07:09;11.83;;;6.53;;
84266;SDS011;74414;51.098;13.716;2024-03-08T14:09:36;9.82;;;5.80;;
84266;SDS011;74414;51.098;13.716;2024-03-08T14:12:05;8.07;;;5.15;;
84266;SDS011;74414;51.098;13.716;2024-03-08T14:14:34;9.70;;;5.63;;
84266;SDS011;74414;51.098;13.716;2024-03-08T14:17:00;10.85;;;5.88;;
84266;SDS011;74414;51.098;13.716;2024-03-08T14:19:27;11.10;;;6.68;;
84266;SDS011;74414;51.098;13.716;2024-03-08T14:21:52;10.63;;;6.30;;
84266;SDS011;74414;51.098;13.716;2024-03-08T14:24:18;11.27;;;6.28;;